Time;durP1;ratioP1;P1;durP2;ratioP2;P2;SDS_P1;SDS_P2;PMS_P1;PMS_P2;Temp;Humidity;BMP_temperature;BMP_pressure;BME280_temperature;BME280_humidity;BME280_pressure;Samples;Min_cycle;Max_cycle;Signal;HPM_P1;HPM_P2
2023/12/14 00:04:56;;;;;;;92.20;32.90;;;;;;;3.75;100.00;99566.48;214718;1296;139564;-92
2023/12/14 00:09:57;;;;;;;106.80;33.00;;;;;;;3.73;100.00;99567.61;213833;1298;140392;-92
2023/12/14 00:14:58;;;;;;;117.30;34.80;;;;;;;3.73;100.00;99572.35;214507;1295;139888;-92
2023/12/14 00:19:59;;;;;;;98.40;31.60;;;;;;;3.72;100.00;99573.80;213949;1296;140726;-93
2023/12/14 00:25:00;;;;;;;93.80;29.60;;;;;;;3.71;100.00;99576.73;214842;1295;98008;-93
2023/12/14 00:30:01;;;;;;;90.90;32.80;;;;;;;3.73;100.00;99578.23;213801;1296;140241;-93
2023/12/14 00:35:01;;;;;;;95.70;31.20;;;;;;;3.73;100.00;99581.13;214087;1295;139551;-94
2023/12/14 00:40:03;;;;;;;91.50;30.60;;;;;;;3.73;100.00;99586.97;213669;1296;140461;-94
2023/12/14 00:45:05;;;;;;;86.20;28.90;;;;;;;3.75;100.00;99592.45;213841;1295;139779;-94
2023/12/14 00:50:05;;;;;;;87.00;29.10;;;;;;;3.77;100.00;99597.86;213170;1296;140581;-93
2023/12/14 00:55:06;;;;;;;78.60;28.50;;;;;;;3.78;100.00;99607.36;213921;1296;98362;-93
2023/12/14 01:00:10;;;;;;;70.00;26.60;;;;;;;3.75;100.00;99613.38;213052;1296;139920;-93
2023/12/14 01:05:11;;;;;;;72.10;27.10;;;;;;;3.72;100.00;99615.08;213714;1293;139414;-91
2023/12/14 01:10:11;;;;;;;64.40;24.80;;;;;;;3.72;100.00;99620.98;213272;1296;140191;-92
2023/12/14 01:15:12;;;;;;;68.70;25.80;;;;;;;3.69;100.00;99631.64;213612;1296;139666;-95
2023/12/14 01:20:13;;;;;;;60.80;23.10;;;;;;;3.66;100.00;99639.02;213129;1296;140148;-94
2023/12/14 01:25:13;;;;;;;57.70;23.20;;;;;;;3.66;100.00;99645.16;213575;1296;98702;-93
2023/12/14 01:30:14;;;;;;;58.90;23.70;;;;;;;3.62;100.00;99645.59;212899;1296;140044;-93
2023/12/14 01:35:16;;;;;;;51.40;20.10;;;;;;;3.58;100.00;99656.30;213807;1296;139162;-95
2023/12/14 01:40:18;;;;;;;48.30;19.10;;;;;;;3.56;100.00;99655.17;213657;1298;140296;-91
2023/12/14 01:45:20;;;;;;;58.40;22.50;;;;;;;3.55;100.00;99661.50;213770;1298;139393;-93
2023/12/14 01:50:20;;;;;;;59.80;22.30;;;;;;;3.52;100.00;99656.30;213028;1296;140083;-94
2023/12/14 01:55:22;;;;;;;55.10;21.10;;;;;;;3.49;100.00;99653.04;213703;1296;99160;-93
2023/12/14 02:00:45;;;;;;;52.00;19.90;;;;;;;3.46;100.00;99651.48;213219;1296;139749;-94
2023/12/14 02:05:46;;;;;;;56.70;22.50;;;;;;;3.40;100.00;99652.48;214229;1298;139210;-92
2023/12/14 02:10:48;;;;;;;52.90;20.60;;;;;;;3.33;100.00;99657.59;213616;1294;140098;-93
2023/12/14 02:15:48;;;;;;;49.20;19.50;;;;;;;3.29;100.00;99658.31;214371;1299;138938;-93
2023/12/14 02:20:49;;;;;;;50.30;19.70;;;;;;;3.30;100.00;99663.85;213366;1296;141089;-94
2023/12/14 02:25:49;;;;;;;51.80;19.00;;;;;;;3.28;100.00;99661.31;214203;1298;139755;-93
2023/12/14 02:30:50;;;;;;;53.10;19.80;;;;;;;3.27;100.00;99671.10;213584;1296;139880;-93
2023/12/14 02:35:50;;;;;;;48.80;18.80;;;;;;;3.25;100.00;99668.25;213695;1296;139221;-92
2023/12/14 02:40:52;;;;;;;49.80;17.60;;;;;;;3.23;100.00;99679.91;213039;1295;140548;-94
2023/12/14 02:45:55;;;;;;;46.20;18.70;;;;;;;3.23;100.00;99686.50;213746;1293;139395;-93
2023/12/14 02:50:55;;;;;;;48.40;17.90;;;;;;;3.22;100.00;99693.30;212778;1296;139898;-94
2023/12/14 02:55:56;;;;;;;37.80;15.40;;;;;;;3.17;100.00;99696.75;213961;1298;139884;-93
2023/12/14 03:00:57;;;;;;;43.80;16.30;;;;;;;3.17;100.00;99699.84;213632;1295;139699;-94
2023/12/14 03:05:57;;;;;;;37.60;15.40;;;;;;;3.18;100.00;99705.70;213748;1296;138788;-94
2023/12/14 03:10:58;;;;;;;30.90;14.00;;;;;;;3.16;100.00;99712.65;213538;1295;140178;-94
2023/12/14 03:16:00;;;;;;;38.00;15.70;;;;;;;3.15;100.00;99719.54;213849;1297;139151;-93
2023/12/14 03:21:00;;;;;;;31.90;13.20;;;;;;;3.14;100.00;99725.80;213262;1298;139825;-90
2023/12/14 03:26:01;;;;;;;31.40;14.30;;;;;;;3.12;100.00;99734.27;213912;1296;139495;-93
2023/12/14 03:31:02;;;;;;;33.80;14.20;;;;;;;3.11;100.00;99741.23;213246;1296;140936;-94
2023/12/14 03:36:03;;;;;;;33.40;14.30;;;;;;;3.11;100.00;99748.52;213857;1296;139236;-92
2023/12/14 03:41:03;;;;;;;33.30;14.30;;;;;;;3.08;100.00;99753.10;212856;1296;140418;-93
2023/12/14 03:46:06;;;;;;;35.60;13.60;;;;;;;3.06;100.00;99754.84;213803;1296;139428;-91
2023/12/14 03:51:06;;;;;;;40.40;18.20;;;;;;;3.05;100.00;99760.25;212968;1297;139722;-93
2023/12/14 03:56:08;;;;;;;40.70;16.90;;;;;;;3.05;100.00;99769.08;214459;1299;139389;-94
2023/12/14 04:01:16;;;;;;;37.00;16.30;;;;;;;3.03;100.00;99769.50;213715;1297;140087;-90
2023/12/14 04:06:16;;;;;;;38.50;16.40;;;;;;;3.00;100.00;99774.05;213875;1298;138767;-94
2023/12/14 04:11:17;;;;;;;38.70;16.90;;;;;;;2.95;100.00;99772.42;213347;1296;140092;-94
2023/12/14 04:16:20;;;;;;;40.30;16.00;;;;;;;2.91;100.00;99782.70;213811;1298;138977;-94
2023/12/14 04:21:21;;;;;;;43.40;18.30;;;;;;;2.89;100.00;99788.10;213716;1296;139951;-94
2023/12/14 04:26:21;;;;;;;37.80;17.10;;;;;;;2.86;100.00;99794.67;214280;1296;140303;-93
2023/12/14 04:31:22;;;;;;;42.10;16.70;;;;;;;2.81;100.00;99793.77;213712;1296;140730;-94
2023/12/14 04:36:22;;;;;;;43.50;16.90;;;;;;;2.80;100.00;99798.90;214611;1297;139787;-93
2023/12/14 04:41:23;;;;;;;39.20;17.20;;;;;;;2.80;100.00;99801.99;213704;1299;140338;-94
2023/12/14 04:46:23;;;;;;;40.30;16.60;;;;;;;2.79;100.00;99799.71;214406;1296;139953;-94
2023/12/14 04:51:24;;;;;;;41.30;16.10;;;;;;;2.75;100.00;99802.02;212995;1298;139969;-87
2023/12/14 04:56:24;;;;;;;39.10;16.80;;;;;;;2.72;100.00;99808.11;213586;1296;140097;-92
2023/12/14 05:01:28;;;;;;;39.30;16.60;;;;;;;2.66;100.00;99808.61;212951;1298;140322;-92
2023/12/14 05:06:29;;;;;;;37.70;17.00;;;;;;;2.64;100.00;99811.04;213727;1294;139435;-92
2023/12/14 05:11:29;;;;;;;47.10;17.90;;;;;;;2.63;100.00;99816.19;213305;1296;140593;-92
2023/12/14 05:16:30;;;;;;;40.40;17.00;;;;;;;2.58;100.00;99828.52;214392;1295;139554;-94
2023/12/14 05:21:31;;;;;;;39.30;16.20;;;;;;;2.58;100.00;99834.75;213546;1295;141937;-94
2023/12/14 05:26:31;;;;;;;39.70;17.00;;;;;;;2.57;100.00;99847.14;214352;1297;139549;-93
2023/12/14 05:31:32;;;;;;;40.80;18.30;;;;;;;2.55;100.00;99854.58;213496;1297;141101;-93
2023/12/14 05:36:32;;;;;;;37.60;16.30;;;;;;;2.51;100.00;99863.53;213872;1296;139590;-95
2023/12/14 05:41:33;;;;;;;46.80;19.70;;;;;;;2.51;100.00;99875.79;213055;1299;140029;-93
2023/12/14 05:46:33;;;;;;;47.40;18.50;;;;;;;2.53;100.00;99883.84;214051;1296;139550;-93
2023/12/14 05:51:35;;;;;;;46.70;20.40;;;;;;;2.51;100.00;99895.64;213429;1296;139975;-90
2023/12/14 05:56:35;;;;;;;43.60;19.10;;;;;;;2.45;100.00;99908.02;214041;1296;139953;-94
2023/12/14 06:01:36;;;;;;;36.00;16.20;;;;;;;2.42;100.00;99913.04;214096;1296;139651;-92
2023/12/14 06:06:40;;;;;;;52.40;24.20;;;;;;;2.38;100.00;99918.34;214051;1299;139409;-92
2023/12/14 06:11:40;;;;;;;44.50;19.70;;;;;;;2.37;100.00;99923.02;213418;1295;140450;-94
2023/12/14 06:16:41;;;;;;;47.00;19.00;;;;;;;2.37;100.00;99931.10;215353;1296;139540;-96
2023/12/14 06:21:41;;;;;;;53.60;21.50;;;;;;;2.40;100.00;99941.12;214500;1296;140283;-91
2023/12/14 06:26:43;;;;;;;44.30;19.10;;;;;;;2.43;100.00;99950.56;213394;1297;138884;-92
2023/12/14 06:31:45;;;;;;;48.90;20.20;;;;;;;2.42;100.00;99959.35;212841;1296;139910;-93
2023/12/14 06:36:46;;;;;;;41.40;17.70;;;;;;;2.40;100.00;99968.67;213249;1299;139028;-92
2023/12/14 06:41:47;;;;;;;39.80;17.00;;;;;;;2.41;100.00;99974.83;212613;1295;140151;-91
2023/12/14 06:46:47;;;;;;;41.10;17.40;;;;;;;2.41;100.00;99980.88;213241;1296;139513;-91
2023/12/14 06:51:47;;;;;;;39.10;16.00;;;;;;;2.41;100.00;99990.89;212483;1299;139954;-91
2023/12/14 06:56:48;;;;;;;38.00;16.90;;;;;;;2.44;100.00;100009.14;213123;1296;139862;-92
2023/12/14 07:01:49;;;;;;;40.70;16.40;;;;;;;2.40;100.00;100013.45;212925;1298;140282;-91
2023/12/14 07:06:51;;;;;;;42.70;16.40;;;;;;;2.41;100.00;100010.36;214351;1299;97940;-92
2023/12/14 07:11:52;;;;;;;37.10;14.80;;;;;;;2.39;100.00;100019.91;213980;1295;140356;-92
2023/12/14 07:16:53;;;;;;;42.40;17.00;;;;;;;2.39;100.00;100029.98;214586;1299;139811;-92
2023/12/14 07:21:53;;;;;;;34.50;15.40;;;;;;;2.39;100.00;100031.54;213405;1296;140238;-90
2023/12/14 07:26:54;;;;;;;40.40;16.40;;;;;;;2.41;100.00;100033.25;213756;1297;139824;-91
2023/12/14 07:31:54;;;;;;;41.50;16.20;;;;;;;2.44;100.00;100040.83;212664;1298;140218;-91
2023/12/14 07:36:55;;;;;;;40.50;16.40;;;;;;;2.47;100.00;100049.46;213163;1296;98064;-92
2023/12/14 07:41:56;;;;;;;39.90;16.00;;;;;;;2.48;100.00;100058.20;212568;1296;139861;-92
2023/12/14 07:46:59;;;;;;;44.60;18.60;;;;;;;2.46;100.00;100064.00;212819;1297;139801;-91
2023/12/14 07:51:59;;;;;;;44.40;16.90;;;;;;;2.43;100.00;100066.49;212575;1295;140033;-91
2023/12/14 07:57:00;;;;;;;52.70;19.30;;;;;;;2.40;100.00;100069.23;212968;1296;139621;-91
2023/12/14 08:02:00;;;;;;;45.50;17.70;;;;;;;2.41;100.00;100082.91;212462;1297;140399;-92
2023/12/14 08:07:01;;;;;;;42.00;18.90;;;;;;;2.42;100.00;100087.13;213134;1295;97975;-89
2023/12/14 08:12:02;;;;;;;44.10;17.00;;;;;;;2.43;100.00;100095.34;212516;1298;140069;-91
2023/12/14 08:17:03;;;;;;;44.90;18.40;;;;;;;2.45;100.00;100106.09;213086;1296;139946;-91
2023/12/14 08:22:03;;;;;;;38.80;17.40;;;;;;;2.49;100.00;100117.58;212283;1297;140220;-90
2023/12/14 08:27:04;;;;;;;37.70;15.90;;;;;;;2.55;100.00;100129.71;213028;1297;139171;-91
2023/12/14 08:32:05;;;;;;;41.30;17.00;;;;;;;2.59;100.00;100143.05;214471;1298;140196;-92
2023/12/14 08:37:06;;;;;;;31.20;15.10;;;;;;;2.63;100.00;100152.91;213099;1297;98103;-91
2023/12/14 08:42:06;;;;;;;39.80;17.50;;;;;;;2.64;100.00;100150.80;212756;1296;140763;-91
2023/12/14 08:47:08;;;;;;;40.40;18.10;;;;;;;2.64;100.00;100153.41;212920;1297;139075;-90
2023/12/14 08:52:11;;;;;;;34.60;15.80;;;;;;;2.64;100.00;100163.50;212422;1295;140295;-91
2023/12/14 08:57:12;;;;;;;34.80;14.90;;;;;;;2.66;100.00;100171.17;212835;1296;139358;-91
2023/12/14 09:02:12;;;;;;;33.40;15.20;;;;;;;2.69;100.00;100179.60;212214;1296;140784;-91
2023/12/14 09:07:13;;;;;;;32.60;15.70;;;;;;;2.70;100.00;100192.45;213065;1295;98062;-91
2023/12/14 09:12:13;;;;;;;33.40;15.10;;;;;;;2.74;100.00;100212.09;212202;1297;139974;-92
2023/12/14 09:17:14;;;;;;;33.10;14.50;;;;;;;2.80;100.00;100217.60;212776;1297;139052;-89
2023/12/14 09:22:14;;;;;;;32.20;14.90;;;;;;;2.83;100.00;100220.90;213645;1294;140115;-91
2023/12/14 09:27:15;;;;;;;27.30;14.40;;;;;;;2.85;100.00;100224.41;212539;1297;139853;-89
2023/12/14 09:32:17;;;;;;;29.50;13.10;;;;;;;2.88;100.00;100228.55;212176;1296;140780;-89
2023/12/14 09:37:17;;;;;;;34.30;14.90;;;;;;;2.87;100.00;100236.48;212821;1296;98333;-90
2023/12/14 09:42:20;;;;;;;29.20;14.30;;;;;;;2.86;100.00;100240.80;212088;1296;140053;-89
2023/12/14 09:47:21;;;;;;;24.50;12.30;;;;;;;2.87;100.00;100244.58;212585;1298;260987;-91
2023/12/14 09:52:22;;;;;;;32.50;14.90;;;;;;;2.88;100.00;100243.19;212179;1296;140893;-90
2023/12/14 09:57:25;;;;;;;26.00;11.90;;;;;;;2.87;100.00;100237.44;212736;1298;139352;-90
2023/12/14 10:02:29;;;;;;;28.30;13.30;;;;;;;2.90;100.00;100240.52;212550;1296;140508;-90
2023/12/14 10:07:31;;;;;;;29.60;12.90;;;;;;;2.96;100.00;100244.92;212877;1298;98019;-90
2023/12/14 10:12:31;;;;;;;27.00;12.60;;;;;;;3.00;100.00;100251.74;212643;1298;140557;-89
2023/12/14 10:17:32;;;;;;;27.70;13.50;;;;;;;3.01;100.00;100250.63;212603;1298;140000;-90
2023/12/14 10:22:35;;;;;;;27.20;11.60;;;;;;;3.01;100.00;100260.59;212117;1299;140385;-88
2023/12/14 10:27:37;;;;;;;29.40;13.80;;;;;;;3.05;100.00;100269.84;212866;1296;139015;-90
2023/12/14 10:32:39;;;;;;;29.00;14.10;;;;;;;3.08;100.00;100276.08;212245;1299;140362;-90
2023/12/14 10:37:39;;;;;;;28.00;12.50;;;;;;;3.14;100.00;100273.36;212896;1301;98007;-90
2023/12/14 10:42:45;;;;;;;28.60;14.30;;;;;;;3.17;100.00;100275.63;212173;1298;140063;-90
2023/12/14 10:47:50;;;;;;;31.40;14.60;;;;;;;3.18;100.00;100275.82;212882;1294;138960;-89
2023/12/14 10:52:50;;;;;;;31.70;14.10;;;;;;;3.20;100.00;100281.55;212479;1297;140463;-89
2023/12/14 10:57:53;;;;;;;27.80;13.70;;;;;;;3.20;100.00;100283.83;213708;1298;139345;-90
2023/12/14 11:02:53;;;;;;;30.10;14.10;;;;;;;3.25;100.00;100295.76;212448;1299;139813;-89
2023/12/14 11:08:12;;;;;;;27.20;14.50;;;;;;;3.28;100.00;100299.66;212791;1303;139794;-90
2023/12/14 11:13:14;;;;;;;30.80;13.90;;;;;;;3.30;100.00;100308.05;212459;1295;140274;-90
2023/12/14 11:18:14;;;;;;;27.10;13.50;;;;;;;3.36;100.00;100317.40;213054;1298;138952;-90
2023/12/14 11:23:17;;;;;;;26.80;13.60;;;;;;;3.41;100.00;100324.23;212373;1307;139929;-89
2023/12/14 11:28:18;;;;;;;27.60;13.40;;;;;;;3.43;100.00;100332.87;213022;1296;139344;-89
2023/12/14 11:33:18;;;;;;;28.20;13.70;;;;;;;3.46;100.00;100333.23;212477;1298;140759;-90
2023/12/14 11:38:20;;;;;;;25.20;14.00;;;;;;;3.52;100.00;100336.65;212948;1299;139106;-90
2023/12/14 11:43:21;;;;;;;27.00;13.80;;;;;;;3.60;100.00;100340.56;213683;1296;140532;-90
2023/12/14 11:48:22;;;;;;;27.10;13.80;;;;;;;3.66;100.00;100348.50;212876;1295;139531;-89
2023/12/14 11:53:23;;;;;;;26.10;13.20;;;;;;;3.65;100.00;100349.98;215724;1296;140122;-89
2023/12/14 11:58:24;;;;;;;29.40;13.40;;;;;;;3.63;100.00;100350.66;217134;1297;139004;-89
2023/12/14 12:03:25;;;;;;;26.40;12.80;;;;;;;3.63;100.00;100353.30;214509;1295;140563;-90
2023/12/14 12:08:25;;;;;;;25.30;12.60;;;;;;;3.65;100.00;100355.96;212690;1296;141767;-89
2023/12/14 12:13:26;;;;;;;27.40;12.30;;;;;;;3.63;100.00;100361.00;212430;1296;140615;-89
2023/12/14 12:18:27;;;;;;;26.00;12.10;;;;;;;3.55;100.00;100370.86;212654;1299;139584;-89
2023/12/14 12:23:27;;;;;;;22.70;11.20;;;;;;;3.54;100.00;100380.34;212206;1299;140157;-89
2023/12/14 12:28:30;;;;;;;23.30;10.80;;;;;;;3.51;100.00;100390.87;212889;1298;139833;-89
2023/12/14 12:33:37;;;;;;;22.40;10.70;;;;;;;3.46;100.00;100401.63;212459;1296;140158;-89
2023/12/14 12:38:40;;;;;;;;;;;;;;;3.43;100.00;100403.75;212841;1298;139094;-89
2023/12/14 12:43:40;;;;;;;23.90;10.00;;;;;;;3.44;100.00;100410.70;212490;1296;126119;-88
2023/12/14 12:48:41;;;;;;;22.70;13.10;;;;;;;3.41;100.00;100413.35;212804;1304;139793;-89
2023/12/14 12:53:41;;;;;;;24.90;11.90;;;;;;;3.36;100.00;100422.45;212232;1296;139977;-88
2023/12/14 12:58:42;;;;;;;23.00;10.80;;;;;;;3.33;100.00;100426.28;212792;1297;139468;-87
2023/12/14 13:03:42;;;;;;;25.90;12.00;;;;;;;3.30;100.00;100419.80;212322;1298;140404;-89
2023/12/14 13:08:43;;;;;;;22.70;10.00;;;;;;;3.27;100.00;100425.99;213029;1296;139979;-88
2023/12/14 13:13:44;;;;;;;21.30;10.60;;;;;;;3.26;100.00;100435.19;212651;1296;140284;-88
2023/12/14 13:18:45;;;;;;;22.20;10.50;;;;;;;3.23;100.00;100444.92;213936;1297;140143;-87
2023/12/14 13:23:46;;;;;;;35.20;22.70;;;;;;;3.20;100.00;100450.35;213465;1296;140830;-88
2023/12/14 13:28:46;;;;;;;28.10;17.90;;;;;;;3.21;100.00;100451.05;214069;1298;139545;-87
2023/12/14 13:33:47;;;;;;;18.60;9.80;;;;;;;3.25;100.00;100447.57;212958;1295;139896;-87
2023/12/14 13:38:48;;;;;;;20.80;9.80;;;;;;;3.24;100.00;100462.55;213446;1295;139050;-87
2023/12/14 13:43:48;;;;;;;20.30;9.40;;;;;;;3.23;100.00;100480.77;212843;1299;140378;-88
2023/12/14 13:48:49;;;;;;;17.80;8.30;;;;;;;3.25;100.00;100491.54;213007;1298;97987;-86
2023/12/14 13:53:49;;;;;;;17.80;8.30;;;;;;;3.20;100.00;100493.67;212520;1296;139646;-86
2023/12/14 13:58:51;;;;;;;20.30;8.40;;;;;;;3.16;100.00;100505.10;212989;1296;139089;-87
2023/12/14 14:03:51;;;;;;;19.70;8.70;;;;;;;3.13;100.00;100510.87;212575;1296;140002;-85
2023/12/14 14:08:52;;;;;;;17.70;8.30;;;;;;;3.09;100.00;100527.88;213121;1295;139498;-85
2023/12/14 14:13:53;;;;;;;19.50;9.40;;;;;;;3.07;100.00;100540.52;212501;1297;139985;-85
2023/12/14 14:18:53;;;;;;;17.40;8.50;;;;;;;3.03;100.00;100545.80;213028;1294;98016;-87
2023/12/14 14:23:54;;;;;;;19.70;9.40;;;;;;;2.99;100.00;100549.36;213104;1299;139761;-87
2023/12/14 14:28:59;;;;;;;21.10;10.10;;;;;;;2.94;100.00;100560.48;213625;1295;140112;-86
2023/12/14 14:34:00;;;;;;;17.90;8.00;;;;;;;2.90;100.00;100578.65;212772;1296;141068;-86
2023/12/14 14:39:01;;;;;;;19.80;9.50;;;;;;;2.89;100.00;100589.29;213751;1295;139081;-87
2023/12/14 14:44:02;;;;;;;18.30;9.20;;;;;;;2.84;100.00;100602.66;213107;1296;140104;-86
2023/12/14 14:49:02;;;;;;;21.90;9.60;;;;;;;2.80;100.00;100611.56;213572;1298;98090;-86
2023/12/14 14:54:03;;;;;;;20.10;9.30;;;;;;;2.75;100.00;100619.36;212566;1296;139788;-87
2023/12/14 14:59:03;;;;;;;23.90;9.80;;;;;;;2.72;100.00;100630.09;213005;1296;139945;-86
2023/12/14 15:04:04;;;;;;;23.90;10.90;;;;;;;2.66;100.00;100634.77;212345;1296;140201;-87
2023/12/14 15:09:07;;;;;;;26.70;11.90;;;;;;;2.60;100.00;100641.64;213769;1295;139992;-87
2023/12/14 15:14:08;;;;;;;21.70;10.10;;;;;;;2.56;100.00;100645.34;212925;1296;139968;-88
2023/12/14 15:19:09;;;;;;;20.10;8.80;;;;;;;2.53;100.00;100648.19;213585;1296;97973;-88
2023/12/14 15:24:10;;;;;;;22.20;10.20;;;;;;;2.48;100.00;100656.84;212869;1298;139999;-88
2023/12/14 15:29:10;;;;;;;20.40;8.30;;;;;;;2.44;100.00;100670.22;213646;1294;139079;-88
2023/12/14 15:34:11;;;;;;;19.30;10.00;;;;;;;2.39;100.00;100676.09;212983;1299;140380;-88
2023/12/14 15:39:11;;;;;;;19.40;9.10;;;;;;;2.35;100.00;100692.00;213554;1296;139326;-88
2023/12/14 15:44:12;;;;;;;22.20;10.20;;;;;;;2.31;100.00;100698.61;213681;1296;139799;-87
2023/12/14 15:49:13;;;;;;;22.30;10.80;;;;;;;2.28;100.00;100708.11;212840;1298;97952;-89
2023/12/14 15:54:13;;;;;;;19.90;10.10;;;;;;;2.26;100.00;100716.29;211991;1296;140146;-87
2023/12/14 15:59:14;;;;;;;24.20;12.40;;;;;;;2.24;100.00;100721.17;212898;1299;139213;-88
2023/12/14 16:04:15;;;;;;;23.70;12.00;;;;;;;2.20;100.00;100720.73;212239;1295;141276;-87
2023/12/14 16:09:21;;;;;;;24.30;10.50;;;;;;;2.16;100.00;100727.59;213134;1296;139903;-88
2023/12/14 16:14:22;;;;;;;24.50;10.90;;;;;;;2.09;100.00;100730.54;211917;1296;140393;-88
2023/12/14 16:19:29;;;;;;;22.40;9.80;;;;;;;2.03;100.00;100730.23;213067;1294;97972;-88
2023/12/14 16:24:30;;;;;;;17.60;8.20;;;;;;;1.96;100.00;100739.64;212202;1299;139960;-89
2023/12/14 16:29:32;;;;;;;20.50;9.80;;;;;;;1.95;100.00;100749.94;212551;1295;138850;-88
2023/12/14 16:34:34;;;;;;;21.70;9.10;;;;;;;1.92;100.00;100759.41;212177;1296;140241;-88
2023/12/14 16:39:35;;;;;;;21.70;10.20;;;;;;;1.88;100.00;100767.22;212785;1298;139529;-88
2023/12/14 16:44:37;;;;;;;29.10;13.80;;;;;;;1.85;100.00;100771.16;212302;1296;139736;-89
2023/12/14 16:49:40;;;;;;;26.40;13.80;;;;;;;1.81;100.00;100775.55;212918;1298;98050;-88
2023/12/14 16:54:40;;;;;;;27.40;13.90;;;;;;;1.78;100.00;100786.53;212181;1296;140123;-89
2023/12/14 16:59:42;;;;;;;34.10;16.70;;;;;;;1.77;100.00;100798.11;212666;1298;139083;-88
2023/12/14 17:04:43;;;;;;;31.40;14.70;;;;;;;1.75;100.00;100802.90;212290;1296;140621;-88
2023/12/14 17:09:44;;;;;;;30.50;14.20;;;;;;;1.71;100.00;100814.10;212145;1294;140402;-88
2023/12/14 17:14:44;;;;;;;31.00;13.20;;;;;;;1.69;100.00;100828.03;213482;1296;140185;-87
2023/12/14 17:19:45;;;;;;;39.60;20.50;;;;;;;1.68;100.00;100846.64;212288;1296;140471;-88
2023/12/14 17:24:45;;;;;;;34.50;17.60;;;;;;;1.65;100.00;100851.37;212736;1295;139095;-87
2023/12/14 17:29:46;;;;;;;28.20;16.00;;;;;;;1.61;100.00;100855.03;212234;1296;140842;-87
2023/12/14 17:34:46;;;;;;;28.20;14.20;;;;;;;1.57;100.00;100859.15;212607;1295;140022;-87
2023/12/14 17:39:47;;;;;;;30.50;15.10;;;;;;;1.53;100.00;100860.17;212178;1296;139946;-87
2023/12/14 17:44:47;;;;;;;36.20;16.80;;;;;;;1.50;100.00;100863.59;212859;1295;139302;-88
2023/12/14 17:49:48;;;;;;;34.90;14.60;;;;;;;1.45;100.00;100868.05;212289;1296;140195;-87
2023/12/14 17:54:50;;;;;;;29.20;14.00;;;;;;;1.42;100.00;100883.53;213120;1298;138944;-87
2023/12/14 17:59:51;;;;;;;27.40;13.40;;;;;;;1.35;100.00;100887.27;212282;1296;140408;-87
2023/12/14 18:04:51;;;;;;;29.40;14.90;;;;;;;1.35;100.00;100897.73;212968;1296;139073;-86
2023/12/14 18:09:52;;;;;;;40.80;19.80;;;;;;;1.37;100.00;100907.52;212206;1296;140523;-86
2023/12/14 18:14:52;;;;;;;57.50;27.20;;;;;;;1.35;100.00;100910.64;212781;1298;139683;-86
2023/12/14 18:19:56;;;;;;;59.10;26.80;;;;;;;1.36;100.00;100921.24;212826;1294;140853;-87
2023/12/14 18:24:56;;;;;;;37.60;19.40;;;;;;;1.34;100.00;100926.45;212959;1296;97888;-86
2023/12/14 18:29:56;;;;;;;35.60;18.20;;;;;;;1.26;100.00;100932.09;212243;1296;230537;-86
2023/12/14 18:34:57;;;;;;;36.10;17.00;;;;;;;1.20;100.00;100939.48;212764;1296;139155;-86
2023/12/14 18:39:57;;;;;;;36.50;18.50;;;;;;;1.19;100.00;100949.96;212644;1296;140628;-87
2023/12/14 18:44:58;;;;;;;45.60;22.70;;;;;;;1.14;100.00;100956.41;213023;1299;139699;-86
2023/12/14 18:50:03;;;;;;;38.80;20.90;;;;;;;1.10;100.00;100964.40;212550;1296;140315;-85
2023/12/14 18:55:04;;;;;;;41.20;20.50;;;;;;;1.01;100.00;100976.69;213560;1295;107724;-86
2023/12/14 19:00:07;;;;;;;52.00;25.10;;;;;;;0.92;100.00;100992.95;212648;1296;141423;-86
2023/12/14 19:05:10;;;;;;;53.70;23.80;;;;;;;0.86;100.00;101004.07;213191;1295;139715;-85
2023/12/14 19:10:12;;;;;;;41.80;21.10;;;;;;;0.81;100.00;101011.30;212827;1297;140188;-85
2023/12/14 19:15:25;;;;;;;62.20;26.50;;;;;;;0.75;100.00;101012.59;213249;1298;139241;-86
2023/12/14 19:20:26;;;;;;;63.10;28.70;;;;;;;0.72;100.00;101028.86;213060;1296;141362;-86
2023/12/14 19:25:33;;;;;;;44.20;21.70;;;;;;;0.67;100.00;101044.88;212938;1296;98055;-86
2023/12/14 19:30:33;;;;;;;54.00;29.90;;;;;;;0.63;100.00;101059.02;212366;1297;139960;-86
2023/12/14 19:35:34;;;;;;;59.60;32.70;;;;;;;0.56;100.00;101057.95;213183;1296;139031;-85
2023/12/14 19:40:34;;;;;;;41.90;22.20;;;;;;;0.51;100.00;101065.67;212438;1296;140609;-85
2023/12/14 19:45:35;;;;;;;46.70;19.70;;;;;;;0.46;100.00;101070.79;213214;1296;139090;-86
2023/12/14 19:50:36;;;;;;;39.80;16.80;;;;;;;0.41;100.00;101072.10;212683;1297;141220;-86
2023/12/14 19:55:40;;;;;;;35.20;15.70;;;;;;;0.35;100.00;101077.23;214389;1296;97941;-87
2023/12/14 20:00:43;;;;;;;33.80;16.30;;;;;;;0.31;100.00;101086.65;213658;1296;141024;-85
2023/12/14 20:05:44;;;;;;;34.60;15.20;;;;;;;0.27;100.00;101093.33;213671;1296;139363;-86
2023/12/14 20:10:45;;;;;;;32.60;15.60;;;;;;;0.23;100.00;101105.08;212611;1294;140637;-87
2023/12/14 20:15:46;;;;;;;34.40;15.40;;;;;;;0.17;100.00;101113.98;212843;1296;139111;-85
2023/12/14 20:20:55;;;;;;;31.90;14.70;;;;;;;0.07;100.00;101123.38;213013;1296;140903;-86
2023/12/14 20:25:56;;;;;;;32.60;15.80;;;;;;;0.00;100.00;101125.85;214306;1296;98405;-86
2023/12/14 20:36:02;;;;;;;53.80;22.10;;;;;;;-0.10;100.00;101138.36;214185;1298;139365;-87
2023/12/14 20:41:03;;;;;;;56.70;23.50;;;;;;;-0.15;100.00;101140.50;212688;1298;141935;-87
2023/12/14 20:46:04;;;;;;;57.80;24.00;;;;;;;-0.22;100.00;101151.82;214099;1298;139574;-87
2023/12/14 20:51:08;;;;;;;43.90;19.80;;;;;;;-0.30;100.00;101161.98;212143;1298;140718;-88
2023/12/14 20:56:09;;;;;;;47.40;18.20;;;;;;;-0.35;100.00;101174.40;213438;1298;139635;-87
2023/12/14 21:01:10;;;;;;;44.10;18.00;;;;;;;-0.42;100.00;101174.76;212224;1298;140762;-85
2023/12/14 21:06:11;;;;;;;46.50;20.10;;;;;;;-0.50;100.00;101180.68;213167;1299;140015;-85
2023/12/14 21:11:12;;;;;;;69.30;24.00;;;;;;;-0.54;100.00;101187.58;212704;1299;140600;-87
2023/12/14 21:16:13;;;;;;;57.90;25.30;;;;;;;-0.54;100.00;101194.83;213141;1298;141033;-87
2023/12/14 21:21:14;;;;;;;71.40;31.00;;;;;;;-0.52;100.00;101211.25;212079;1298;140716;-84
2023/12/14 21:26:16;;;;;;;69.00;29.20;;;;;;;-0.51;100.00;101211.95;212758;1298;141010;-85
2023/12/14 21:31:16;;;;;;;55.30;28.00;;;;;;;-0.49;100.00;101212.31;212247;1299;140655;-87
2023/12/14 21:36:17;;;;;;;63.10;27.50;;;;;;;-0.48;100.00;101216.84;212819;1301;139854;-85
2023/12/14 21:41:19;;;;;;;56.20;26.00;;;;;;;-0.46;100.00;101217.05;212071;1301;140898;-85
2023/12/14 21:46:20;;;;;;;51.80;24.40;;;;;;;-0.44;100.00;101215.89;212697;1298;189551;-85
2023/12/14 21:51:20;;;;;;;56.70;25.10;;;;;;;-0.40;100.00;101213.47;212385;1298;141104;-85
2023/12/14 21:56:21;;;;;;;51.30;24.60;;;;;;;-0.37;100.00;101212.72;212761;1298;139190;-85
2023/12/14 22:01:22;;;;;;;58.90;26.20;;;;;;;-0.34;100.00;101223.82;212534;1300;140818;-85
2023/12/14 22:06:22;;;;;;;58.40;26.30;;;;;;;-0.30;100.00;101225.53;212880;1298;139988;-85
2023/12/14 22:11:23;;;;;;;73.20;27.70;;;;;;;-0.27;100.00;101226.90;213446;1297;140899;-86
2023/12/14 22:16:23;;;;;;;59.00;26.40;;;;;;;-0.24;100.00;101234.93;215520;1295;139965;-85
2023/12/14 22:21:25;;;;;;;63.90;27.60;;;;;;;-0.20;100.00;101245.51;212364;1299;140416;-85
2023/12/14 22:26:25;;;;;;;69.40;28.40;;;;;;;-0.17;100.00;101255.31;212830;1298;139495;-85
2023/12/14 22:31:26;;;;;;;66.50;29.20;;;;;;;-0.17;100.00;101258.23;212199;1299;140770;-85